Time;durP1;ratioP1;P1;durP2;ratioP2;P2;SDS_P1;SDS_P2;PMS_P1;PMS_P2;Temp;Humidity;BMP_temperature;BMP_pressure;BME280_temperature;BME280_humidity;BME280_pressure;Samples;Min_cycle;Max_cycle;Signal;HPM_P1;HPM_P2
2022/06/18 00:01:49;;;;;;;1.60;1.50;;;19.10;99.90;;;;;;5075375;28;20750;-62
2022/06/18 00:04:18;;;;;;;4.88;1.88;;;19.00;99.90;;;;;;5075928;28;20608;-61
2022/06/18 00:06:50;;;;;;;1.85;1.70;;;19.00;99.90;;;;;;5075151;28;20205;-61
2022/06/18 00:09:20;;;;;;;1.77;1.67;;;18.90;99.90;;;;;;5075389;28;20228;-62
2022/06/18 00:14:31;;;;;;;2.67;1.90;;;18.80;99.90;;;;;;5075234;28;20198;-65
2022/06/18 00:16:59;;;;;;;3.70;1.75;;;18.90;99.90;;;;;;5074839;28;20201;-62
2022/06/18 00:19:26;;;;;;;2.00;1.80;;;18.80;99.90;;;;;;5074937;28;20204;-62
2022/06/18 00:21:53;;;;;;;2.13;1.77;;;18.90;99.90;;;;;;5074882;28;20228;-62
2022/06/18 00:24:21;;;;;;;2.33;1.63;;;18.80;99.90;;;;;;5075480;28;20224;-62
2022/06/18 00:26:48;;;;;;;2.22;1.60;;;18.80;99.90;;;;;;5075162;28;20204;-61
2022/06/18 00:29:17;;;;;;;4.43;1.42;;;18.80;99.90;;;;;;5074918;28;20650;-62
2022/06/18 00:31:44;;;;;;;2.30;1.88;;;18.80;99.90;;;;;;5074742;28;20221;-62
2022/06/18 00:34:13;;;;;;;2.72;1.48;;;18.80;99.90;;;;;;5075077;28;20668;-62
2022/06/18 00:36:41;;;;;;;2.33;1.60;;;18.80;99.90;;;;;;5075084;28;20243;-64
2022/06/18 00:39:13;;;;;;;3.65;1.90;;;18.80;99.90;;;;;;5074930;28;20213;-62
2022/06/18 00:41:42;;;;;;;2.28;1.58;;;18.80;99.90;;;;;;5075102;28;20232;-62
2022/06/18 00:44:20;;;;;;;3.50;1.55;;;18.80;99.90;;;;;;5075082;28;20246;-62
2022/06/18 00:46:55;;;;;;;2.22;1.67;;;18.80;99.90;;;;;;5074551;28;20699;-62
2022/06/18 00:49:28;;;;;;;3.13;2.08;;;18.70;99.90;;;;;;5075244;28;20208;-62
2022/06/18 00:51:58;;;;;;;2.40;1.55;;;18.60;99.90;;;;;;5075225;28;20646;-62
2022/06/18 00:54:30;;;;;;;3.53;1.92;;;18.60;99.90;;;;;;5075365;28;20208;-61
2022/06/18 00:57:03;;;;;;;3.45;1.80;;;18.60;99.90;;;;;;5074001;28;20262;-63
2022/06/18 00:59:37;;;;;;;3.22;1.58;;;18.50;99.90;;;;;;5074567;28;20685;-62
2022/06/18 01:02:04;;;;;;;2.58;1.67;;;18.50;99.90;;;;;;5074518;28;20232;-62
2022/06/18 01:04:35;;;;;;;2.10;1.83;;;18.50;99.90;;;;;;5073996;28;20217;-62
2022/06/18 01:07:05;;;;;;;4.20;1.98;;;18.40;99.90;;;;;;5073268;28;20247;-62
2022/06/18 01:09:33;;;;;;;1.75;1.60;;;18.20;99.90;;;;;;5074329;28;20212;-62
2022/06/18 01:12:00;;;;;;;2.35;1.42;;;18.20;99.90;;;;;;5073783;28;20760;-62
2022/06/18 01:14:28;;;;;;;3.75;1.70;;;18.10;99.90;;;;;;5074665;28;20229;-62
2022/06/18 01:16:59;;;;;;;2.78;1.60;;;18.00;99.90;;;;;;5074677;28;20200;-62
2022/06/18 01:19:31;;;;;;;1.67;1.55;;;17.90;99.90;;;;;;5074594;28;20205;-61
2022/06/18 01:22:13;;;;;;;2.22;1.80;;;17.80;99.90;;;;;;5074142;28;20224;-62
2022/06/18 01:24:44;;;;;;;2.33;1.83;;;17.90;99.90;;;;;;5074265;28;20300;-61
2022/06/18 01:27:11;;;;;;;2.67;1.83;;;17.90;99.90;;;;;;5074403;28;20681;-62
2022/06/18 01:29:39;;;;;;;4.07;2.15;;;17.90;99.90;;;;;;5074058;28;20201;-62
2022/06/18 01:32:09;;;;;;;1.95;1.75;;;17.90;99.90;;;;;;5073679;28;20237;-61
2022/06/18 01:34:38;;;;;;;1.60;1.33;;;17.90;99.90;;;;;;5073432;28;20209;-62
2022/06/18 01:37:06;;;;;;;3.03;1.58;;;17.90;99.90;;;;;;5073126;28;20212;-62
2022/06/18 01:39:37;;;;;;;3.17;1.70;;;17.90;99.90;;;;;;5073621;28;20213;-62
2022/06/18 01:42:11;;;;;;;2.60;1.75;;;17.90;99.90;;;;;;5073326;28;20225;-62
2022/06/18 01:44:47;;;;;;;2.58;1.40;;;18.00;99.90;;;;;;5073559;28;20228;-62
2022/06/18 01:47:19;;;;;;;3.08;1.65;;;18.10;99.90;;;;;;5074278;28;20234;-62
2022/06/18 01:49:50;;;;;;;4.93;1.52;;;18.20;99.90;;;;;;5074750;28;20633;-62
2022/06/18 01:52:21;;;;;;;1.65;1.48;;;18.30;99.90;;;;;;5074248;28;20317;-62
2022/06/18 01:54:54;;;;;;;2.80;1.80;;;18.30;99.90;;;;;;5073981;28;20208;-61
2022/06/18 01:57:27;;;;;;;2.22;2.00;;;18.40;99.90;;;;;;5073312;28;20213;-62
2022/06/18 01:59:58;;;;;;;2.08;1.60;;;18.40;99.90;;;;;;5073657;28;20208;-62
2022/06/18 02:02:25;;;;;;;4.07;1.90;;;18.40;99.90;;;;;;5074058;28;20209;-62
2022/06/18 02:04:52;;;;;;;2.17;1.75;;;18.30;99.90;;;;;;5073608;28;20224;-62
2022/06/18 02:07:20;;;;;;;2.63;1.95;;;18.30;99.90;;;;;;5073711;28;20205;-62
2022/06/18 02:09:53;;;;;;;2.22;1.65;;;18.30;99.90;;;;;;5073487;28;20236;-62
2022/06/18 02:12:26;;;;;;;3.95;1.83;;;18.20;99.90;;;;;;5072564;28;20251;-62
2022/06/18 02:14:58;;;;;;;3.10;1.90;;;18.30;99.90;;;;;;5073004;28;20292;-62
2022/06/18 02:17:27;;;;;;;1.88;1.70;;;18.30;99.90;;;;;;5072731;28;20708;-63
2022/06/18 02:19:58;;;;;;;4.32;1.65;;;18.30;99.90;;;;;;5072932;28;20219;-62
2022/06/18 02:22:34;;;;;;;2.72;1.88;;;18.30;99.90;;;;;;5073190;28;20205;-62
2022/06/18 02:25:01;;;;;;;2.97;1.88;;;18.30;99.90;;;;;;5073019;28;20224;-62
2022/06/18 02:27:29;;;;;;;2.80;1.70;;;18.30;99.90;;;;;;5072890;28;20209;-62
2022/06/18 02:29:56;;;;;;;2.20;1.90;;;18.30;99.90;;;;;;5073411;28;20201;-62
2022/06/18 02:32:46;;;;;;;2.10;1.60;;;18.30;99.90;;;;;;5073625;28;20236;-62
2022/06/18 02:35:13;;;;;;;3.10;1.90;;;18.30;99.90;;;;;;5072982;28;20270;-62
2022/06/18 02:37:41;;;;;;;4.55;1.77;;;18.30;99.90;;;;;;5072778;28;20208;-62
2022/06/18 02:40:17;;;;;;;3.65;1.65;;;18.20;99.90;;;;;;5073601;28;20211;-62
2022/06/18 02:42:45;;;;;;;3.53;1.92;;;18.20;99.90;;;;;;5073767;28;20219;-62
2022/06/18 02:45:12;;;;;;;3.63;1.67;;;18.20;99.90;;;;;;5072903;28;20228;-62
2022/06/18 02:47:39;;;;;;;3.08;2.30;;;18.20;99.90;;;;;;5072662;28;20560;-62
2022/06/18 02:50:09;;;;;;;2.33;1.90;;;18.20;99.90;;;;;;5072812;28;20212;-62
2022/06/18 02:52:41;;;;;;;2.75;1.83;;;18.30;99.90;;;;;;5073321;28;20255;-62
2022/06/18 02:55:13;;;;;;;2.13;1.90;;;18.30;99.90;;;;;;5073249;28;20204;-62
2022/06/18 02:57:40;;;;;;;4.00;1.80;;;18.30;99.90;;;;;;5073093;28;20219;-63
2022/06/18 03:00:13;;;;;;;3.85;2.00;;;18.30;99.90;;;;;;5073848;28;20208;-63
2022/06/18 03:02:40;;;;;;;1.65;1.48;;;18.30;99.90;;;;;;5074651;28;20288;-62
2022/06/18 03:05:07;;;;;;;1.98;1.80;;;18.40;99.90;;;;;;5073914;28;20231;-62
2022/06/18 03:07:34;;;;;;;4.20;2.00;;;18.30;99.90;;;;;;5072805;28;20211;-62
2022/06/18 03:12:45;;;;;;;3.78;2.22;;;18.20;99.90;;;;;;5073320;28;20212;-62
2022/06/18 03:15:13;;;;;;;2.22;1.58;;;18.20;99.90;;;;;;5073708;28;20288;-62
2022/06/18 03:17:40;;;;;;;2.97;1.85;;;18.10;99.90;;;;;;5073075;28;20228;-62
2022/06/18 03:20:13;;;;;;;5.22;1.80;;;18.00;99.90;;;;;;5072996;28;20209;-62
2022/06/18 03:22:40;;;;;;;2.58;1.98;;;18.00;99.90;;;;;;5073010;28;20213;-61
2022/06/18 03:25:07;;;;;;;4.28;1.90;;;17.90;99.90;;;;;;5072918;28;20688;-62
2022/06/18 03:27:34;;;;;;;3.97;1.67;;;18.00;99.90;;;;;;5072606;28;20673;-62
2022/06/18 03:30:03;;;;;;;2.20;1.60;;;18.00;99.90;;;;;;5076073;28;20641;-62
2022/06/18 03:32:31;;;;;;;2.33;1.70;;;18.20;99.90;;;;;;5077718;28;20211;-62
2022/06/18 03:34:58;;;;;;;2.55;1.80;;;18.30;99.90;;;;;;5077537;28;20576;-67
2022/06/18 03:37:25;;;;;;;3.83;2.00;;;18.40;99.90;;;;;;5077711;28;20262;-62
2022/06/18 03:39:51;;;;;;;3.88;1.88;;;18.50;99.90;;;;;;5076451;28;20795;-62
2022/06/18 03:42:18;;;;;;;4.72;1.70;;;18.50;99.90;;;;;;5077316;28;20236;-62
2022/06/18 03:44:45;;;;;;;4.05;1.98;;;18.60;99.90;;;;;;5077432;28;20205;-61
2022/06/18 03:47:12;;;;;;;2.17;1.98;;;18.70;99.90;;;;;;5077171;28;20666;-62
2022/06/18 03:49:40;;;;;;;2.83;1.88;;;18.70;99.90;;;;;;5079109;28;20211;-62
2022/06/18 03:52:09;;;;;;;3.95;1.77;;;18.70;99.90;;;;;;5080020;28;20229;-62
2022/06/18 03:54:36;;;;;;;3.40;1.90;;;18.70;99.90;;;;;;5079732;28;20215;-62
2022/06/18 03:57:03;;;;;;;2.05;1.83;;;18.80;99.90;;;;;;5080783;28;20292;-62
2022/06/18 03:59:29;;;;;;;3.25;1.80;;;18.80;99.90;;;;;;5081417;28;20197;-62
2022/06/18 04:01:56;;;;;;;3.65;1.90;;;18.80;99.90;;;;;;5081897;28;20231;-62
2022/06/18 04:04:23;;;;;;;2.72;1.80;;;18.90;99.90;;;;;;5076327;28;20307;-62
2022/06/18 04:06:51;;;;;;;2.42;1.70;;;18.90;99.90;;;;;;5075001;28;20225;-62
2022/06/18 04:09:17;;;;;;;3.58;1.85;;;18.90;99.90;;;;;;5074801;28;20204;-62
2022/06/18 04:11:44;;;;;;;5.47;1.95;;;19.10;99.90;;;;;;5074775;28;20616;-62
2022/06/18 04:14:11;;;;;;;1.90;1.75;;;19.30;99.90;;;;;;5074684;28;20201;-62
2022/06/18 04:16:38;;;;;;;3.72;1.95;;;19.30;99.90;;;;;;5074441;28;20197;-61
2022/06/18 04:19:05;;;;;;;6.07;2.10;;;19.50;99.90;;;;;;5074410;28;20209;-62
2022/06/18 04:21:31;;;;;;;2.40;1.90;;;19.60;99.90;;;;;;5074469;28;20231;-62
2022/06/18 04:23:59;;;;;;;3.25;2.15;;;19.80;99.90;;;;;;5074624;28;20204;-62
2022/06/18 04:26:26;;;;;;;2.38;1.83;;;19.90;99.90;;;;;;5074264;28;20220;-62
2022/06/18 04:28:53;;;;;;;5.03;2.20;;;20.00;99.90;;;;;;5074060;28;20208;-62
2022/06/18 04:31:20;;;;;;;2.72;2.03;;;20.10;99.90;;;;;;5074068;28;20274;-62
2022/06/18 04:33:47;;;;;;;2.17;1.98;;;20.10;99.90;;;;;;5073981;28;20205;-62
2022/06/18 04:36:32;;;;;;;1.98;1.77;;;20.20;99.90;;;;;;5073804;28;20212;-62
2022/06/18 04:39:00;;;;;;;3.90;1.77;;;20.20;99.90;;;;;;5073892;28;20212;-62
2022/06/18 04:41:27;;;;;;;3.28;1.90;;;20.30;99.90;;;;;;5072823;28;20583;-62
2022/06/18 04:43:55;;;;;;;4.65;1.50;;;20.30;99.90;;;;;;5073932;28;20205;-63
2022/06/18 04:46:22;;;;;;;2.58;1.80;;;20.50;99.90;;;;;;5073839;28;20216;-63
2022/06/18 04:48:49;;;;;;;4.85;1.95;;;21.20;99.90;;;;;;5073638;28;20726;-62
2022/06/18 04:51:15;;;;;;;1.90;1.58;;;22.10;99.90;;;;;;5073886;28;20252;-62
2022/06/18 04:53:45;;;;;;;5.65;1.88;;;23.00;98.70;;;;;;5073827;28;20204;-63
2022/06/18 04:56:14;;;;;;;7.30;2.13;;;24.00;97.00;;;;;;5073823;28;20288;-63
2022/06/18 04:58:41;;;;;;;1.77;1.67;;;25.10;94.70;;;;;;5073519;28;20291;-62
2022/06/18 05:01:08;;;;;;;3.05;1.80;;;26.00;91.70;;;;;;5073468;28;20232;-62
2022/06/18 05:03:35;;;;;;;3.60;1.60;;;26.80;88.30;;;;;;5073691;28;20482;-61
2022/06/18 05:06:02;;;;;;;1.60;1.40;;;27.20;85.20;;;;;;5073439;28;20232;-61
2022/06/18 05:08:28;;;;;;;3.75;1.80;;;27.60;82.80;;;;;;5073408;28;20205;-60
2022/06/18 05:10:56;;;;;;;2.13;1.55;;;28.00;80.30;;;;;;5059740;22;1035438;-64
2022/06/18 05:13:24;;;;;;;4.03;1.50;;;28.70;77.40;;;;;;5072786;28;20201;-63
2022/06/18 05:15:54;;;;;;;1.65;1.55;;;29.30;74.30;;;;;;5073785;28;20201;-63
2022/06/18 05:18:22;;;;;;;2.28;1.40;;;29.80;71.40;;;;;;5074778;28;20244;-63
2022/06/18 05:20:51;;;;;;;2.78;1.52;;;30.10;69.10;;;;;;5073851;28;20229;-63
2022/06/18 05:23:18;;;;;;;2.78;1.65;;;30.60;67.70;;;;;;5074016;28;20208;-63
2022/06/18 05:25:45;;;;;;;2.03;1.50;;;31.20;66.10;;;;;;5072518;28;20271;-63
2022/06/18 05:28:14;;;;;;;2.78;1.50;;;31.70;63.30;;;;;;5072348;28;20520;-64
2022/06/18 05:30:42;;;;;;;3.10;1.60;;;32.30;61.40;;;;;;5073143;28;20233;-62
2022/06/18 05:33:09;;;;;;;3.28;1.70;;;32.80;59.30;;;;;;5072839;28;20205;-62
2022/06/18 05:35:38;;;;;;;5.32;1.80;;;33.20;58.10;;;;;;5072806;28;20270;-62
2022/06/18 05:38:05;;;;;;;3.95;1.60;;;33.60;57.00;;;;;;5072568;28;20236;-62
2022/06/18 05:40:32;;;;;;;4.72;1.67;;;33.90;56.10;;;;;;5072291;28;20209;-62
2022/06/18 05:42:58;;;;;;;3.20;1.77;;;34.30;55.10;;;;;;5072279;28;20281;-62
2022/06/18 05:45:25;;;;;;;2.90;1.42;;;34.60;54.40;;;;;;5072494;28;20270;-62
2022/06/18 05:47:53;;;;;;;1.90;1.38;;;34.90;53.30;;;;;;5072483;28;20254;-62
2022/06/18 05:50:20;;;;;;;2.55;1.48;;;35.40;52.40;;;;;;5072729;28;20209;-64
2022/06/18 05:52:47;;;;;;;1.58;1.48;;;35.70;51.60;;;;;;5072088;28;20300;-63
2022/06/18 05:55:14;;;;;;;2.72;1.80;;;36.20;50.70;;;;;;5072494;28;20220;-63
2022/06/18 05:57:48;;;;;;;1.45;1.20;;;36.60;49.90;;;;;;5072587;28;20201;-63
2022/06/18 06:00:18;;;;;;;3.08;1.55;;;37.00;49.40;;;;;;5072257;28;20691;-63
2022/06/18 06:02:45;;;;;;;3.83;1.27;;;37.30;49.00;;;;;;5072344;28;20267;-63
2022/06/18 06:05:13;;;;;;;1.52;1.20;;;37.50;48.50;;;;;;5072416;28;20487;-63
2022/06/18 06:07:41;;;;;;;1.30;1.20;;;37.80;48.00;;;;;;5072141;28;20514;-63
2022/06/18 06:13:04;;;;;;;6.90;1.80;;;38.40;47.20;;;;;;5072325;28;20246;-64
2022/06/18 06:15:30;;;;;;;2.50;1.67;;;38.90;46.90;;;;;;5072076;28;20618;-63
2022/06/18 06:17:57;;;;;;;4.70;1.60;;;39.50;46.00;;;;;;5072156;28;20201;-65
2022/06/18 06:20:28;;;;;;;7.47;1.60;;;40.10;44.40;;;;;;5072009;28;20722;-62
2022/06/18 06:22:55;;;;;;;2.97;1.40;;;40.50;43.60;;;;;;5072426;28;20386;-64
2022/06/18 06:25:22;;;;;;;3.05;1.50;;;41.00;42.40;;;;;;5071829;28;20212;-64
2022/06/18 06:27:48;;;;;;;1.52;1.40;;;41.30;42.10;;;;;;5071900;28;20225;-63
2022/06/18 06:30:16;;;;;;;2.42;1.40;;;41.50;41.70;;;;;;5071834;28;20209;-64
2022/06/18 06:32:43;;;;;;;2.05;1.35;;;41.50;41.30;;;;;;5072013;28;20316;-64
2022/06/18 06:35:11;;;;;;;1.63;1.40;;;41.60;41.10;;;;;;5071810;28;20652;-64
2022/06/18 06:37:39;;;;;;;1.80;1.33;;;41.90;40.80;;;;;;5072059;28;20226;-65
2022/06/18 06:40:07;;;;;;;3.10;1.40;;;42.30;40.30;;;;;;5071897;28;20204;-64
2022/06/18 06:42:40;;;;;;;2.65;1.50;;;42.70;39.20;;;;;;5071842;28;20228;-64
2022/06/18 06:45:12;;;;;;;4.00;1.33;;;42.90;39.30;;;;;;5071568;28;20207;-62
2022/06/18 06:47:38;;;;;;;2.15;1.52;;;43.10;38.80;;;;;;5071570;28;20228;-62
2022/06/18 06:50:06;;;;;;;3.42;1.58;;;43.70;38.50;;;;;;5071689;28;20208;-62
2022/06/18 06:52:32;;;;;;;2.78;1.85;;;44.00;37.70;;;;;;5071668;28;20231;-63
2022/06/18 06:57:43;;;;;;;1.67;1.45;;;44.80;36.80;;;;;;5070797;28;20679;-62
2022/06/18 07:00:11;;;;;;;2.22;1.45;;;45.00;36.60;;;;;;5071823;28;20204;-62
2022/06/18 07:02:38;;;;;;;3.33;1.40;;;45.10;36.70;;;;;;5071785;28;20250;-63
2022/06/18 07:05:06;;;;;;;3.63;1.63;;;45.10;36.50;;;;;;5075046;28;20689;-62
2022/06/18 07:07:32;;;;;;;3.85;1.60;;;45.10;36.30;;;;;;5076146;28;20760;-63
2022/06/18 07:10:00;;;;;;;4.57;1.50;;;45.20;36.20;;;;;;5076678;28;20614;-63
2022/06/18 07:12:27;;;;;;;1.48;1.30;;;45.30;36.10;;;;;;5076237;28;20236;-63
2022/06/18 07:14:54;;;;;;;2.15;1.40;;;45.60;35.50;;;;;;5076728;28;20262;-62
2022/06/18 07:17:20;;;;;;;2.67;1.70;;;45.90;35.20;;;;;;5076502;28;20200;-62
2022/06/18 07:19:47;;;;;;;3.03;1.38;;;46.20;35.10;;;;;;5075804;28;20245;-62
2022/06/18 07:22:14;;;;;;;1.52;1.20;;;46.60;34.60;;;;;;5076131;28;20224;-62
2022/06/18 07:24:41;;;;;;;2.00;1.40;;;46.60;32.80;;;;;;5075677;28;20283;-63
2022/06/18 07:27:09;;;;;;;3.00;1.27;;;46.50;32.50;;;;;;5076358;28;20358;-63
2022/06/18 07:29:36;;;;;;;3.85;1.38;;;46.60;32.20;;;;;;5075673;28;20207;-63
2022/06/18 07:32:07;;;;;;;2.92;1.40;;;46.90;31.90;;;;;;5075801;28;20711;-63
2022/06/18 07:34:34;;;;;;;1.50;1.20;;;47.40;31.40;;;;;;5076698;28;20200;-63
2022/06/18 07:37:00;;;;;;;1.45;1.35;;;48.00;30.20;;;;;;5075353;28;20201;-62
2022/06/18 07:39:27;;;;;;;3.22;1.10;;;48.10;30.20;;;;;;5074708;28;20208;-63
2022/06/18 07:41:55;;;;;;;1.75;1.15;;;48.50;29.70;;;;;;5074829;28;20229;-63
2022/06/18 07:44:24;;;;;;;2.63;1.30;;;49.10;29.10;;;;;;5074616;28;20208;-63
2022/06/18 07:46:52;;;;;;;2.58;1.30;;;49.60;28.70;;;;;;5074314;28;20270;-63
2022/06/18 07:49:19;;;;;;;2.50;1.17;;;49.60;28.90;;;;;;5074369;28;20205;-63
2022/06/18 07:51:46;;;;;;;2.92;1.20;;;49.40;28.70;;;;;;5074358;28;20225;-64
2022/06/18 07:54:14;;;;;;;2.53;1.20;;;49.00;29.20;;;;;;5074505;28;20262;-63
2022/06/18 07:56:42;;;;;;;5.15;1.20;;;49.10;28.90;;;;;;5077890;28;20208;-64
2022/06/18 07:59:09;;;;;;;3.30;1.20;;;49.60;28.70;;;;;;5075610;28;20200;-63
2022/06/18 08:01:37;;;;;;;3.10;1.40;;;49.70;27.90;;;;;;5076114;28;20228;-63
2022/06/18 08:04:05;;;;;;;3.30;1.13;;;48.30;29.20;;;;;;5076742;28;20222;-63
2022/06/18 08:06:32;;;;;;;3.08;1.40;;;48.20;29.40;;;;;;5075600;28;20220;-62
2022/06/18 08:08:59;;;;;;;3.25;1.55;;;48.40;29.20;;;;;;5073955;28;20208;-62
2022/06/18 08:11:29;;;;;;;2.45;1.33;;;47.90;29.40;;;;;;5074118;28;20232;-64
2022/06/18 08:13:57;;;;;;;2.63;1.17;;;47.10;29.90;;;;;;5074062;28;20747;-62
2022/06/18 08:16:24;;;;;;;2.15;1.20;;;46.60;30.20;;;;;;5073832;28;20274;-62
2022/06/18 08:18:52;;;;;;;2.45;1.30;;;46.70;30.00;;;;;;5073595;28;20688;-63
2022/06/18 08:21:24;;;;;;;2.85;1.48;;;46.40;30.50;;;;;;5073944;28;20239;-62
2022/06/18 08:23:53;;;;;;;4.50;1.38;;;47.00;29.90;;;;;;5073930;28;20212;-63
2022/06/18 08:26:20;;;;;;;3.60;1.50;;;47.50;29.60;;;;;;5073654;28;20208;-62
2022/06/18 08:28:47;;;;;;;2.72;1.50;;;47.70;29.20;;;;;;5073737;28;20254;-62
2022/06/18 08:31:14;;;;;;;1.42;1.30;;;47.80;29.10;;;;;;5073532;28;20349;-62
2022/06/18 08:33:41;;;;;;;2.15;1.23;;;47.20;29.40;;;;;;5073587;28;20276;-63
2022/06/18 08:36:14;;;;;;;2.42;1.30;;;46.80;29.70;;;;;;5073628;28;20248;-63
2022/06/18 08:38:43;;;;;;;4.85;1.60;;;47.00;29.50;;;;;;5073448;28;20585;-63
2022/06/18 08:41:22;;;;;;;3.70;1.38;;;47.00;29.80;;;;;;5073210;28;20227;-62
2022/06/18 08:44:21;;;;;;;3.40;1.50;;;45.90;30.60;;;;;;5073376;28;20204;-63
2022/06/18 08:46:59;;;;;;;2.90;1.60;;;44.60;31.80;;;;;;5052956;28;20722;-63
2022/06/18 08:49:51;;;;;;;3.13;1.58;;;44.50;32.20;;;;;;5073134;28;20206;-63
2022/06/18 08:52:34;;;;;;;2.42;1.40;;;44.40;32.00;;;;;;5073221;28;20225;-62
2022/06/18 08:55:08;;;;;;;1.88;1.30;;;43.60;32.40;;;;;;5073640;28;20203;-63
2022/06/18 08:57:40;;;;;;;2.75;1.40;;;42.90;32.60;;;;;;5073150;28;20211;-63
2022/06/18 09:00:14;;;;;;;3.35;1.45;;;42.00;33.40;;;;;;5073154;28;20671;-63
2022/06/18 09:02:48;;;;;;;5.78;1.50;;;40.70;34.50;;;;;;5073116;28;20228;-63
2022/06/18 09:05:30;;;;;;;2.90;1.60;;;39.40;35.90;;;;;;5073338;28;20266;-63
2022/06/18 09:08:24;;;;;;;3.08;1.50;;;38.50;37.20;;;;;;5072650;28;20243;-65
2022/06/18 09:11:07;;;;;;;3.53;1.55;;;37.60;38.30;;;;;;5069545;28;20721;-63
2022/06/18 09:13:39;;;;;;;2.95;1.58;;;37.00;39.50;;;;;;5071288;28;20197;-67
2022/06/18 09:16:10;;;;;;;2.50;1.50;;;36.60;39.60;;;;;;5072078;28;20216;-62
2022/06/18 09:18:42;;;;;;;3.63;1.40;;;36.20;39.80;;;;;;5071565;28;20676;-62
2022/06/18 09:21:11;;;;;;;1.30;1.20;;;35.90;39.70;;;;;;5071998;28;20541;-65
2022/06/18 09:23:45;;;;;;;2.67;1.67;;;35.70;40.00;;;;;;5071487;28;20204;-64
2022/06/18 09:26:15;;;;;;;3.13;1.70;;;35.30;40.00;;;;;;5070975;28;20209;-66
2022/06/18 09:28:46;;;;;;;3.92;1.63;;;34.80;41.00;;;;;;5071365;28;20729;-63
2022/06/18 09:31:16;;;;;;;3.70;1.52;;;34.60;41.90;;;;;;5071487;28;20244;-64
2022/06/18 09:33:48;;;;;;;2.35;1.48;;;34.40;42.50;;;;;;5071631;28;20273;-64
2022/06/18 09:36:19;;;;;;;1.55;1.42;;;34.30;43.20;;;;;;5059927;28;20205;-63
2022/06/18 09:38:52;;;;;;;1.65;1.52;;;34.20;43.70;;;;;;5070095;28;20311;-66
2022/06/18 09:41:24;;;;;;;1.30;1.15;;;34.30;40.50;;;;;;5071415;28;20232;-63
2022/06/18 09:43:58;;;;;;;3.03;1.15;;;34.30;39.20;;;;;;5071407;28;20212;-64
2022/06/18 09:46:27;;;;;;;2.72;1.20;;;34.30;39.40;;;;;;5070994;28;20231;-62
2022/06/18 09:48:54;;;;;;;1.83;1.40;;;34.20;39.80;;;;;;5071259;28;20282;-62
2022/06/18 09:51:26;;;;;;;2.28;1.38;;;34.30;40.00;;;;;;5071130;28;20275;-61
2022/06/18 09:53:58;;;;;;;2.40;1.20;;;34.20;39.90;;;;;;5071229;28;20312;-64
2022/06/18 09:56:31;;;;;;;2.50;1.42;;;34.10;40.00;;;;;;5071237;28;20209;-62
2022/06/18 09:59:00;;;;;;;2.22;2.00;;;34.00;41.10;;;;;;5070805;28;20208;-63
2022/06/18 10:01:36;;;;;;;3.28;1.60;;;34.00;43.10;;;;;;5071194;28;20228;-63
2022/06/18 10:06:56;;;;;;;1.80;1.15;;;34.00;43.80;;;;;;5071132;28;20199;-63
2022/06/18 10:09:29;;;;;;;3.38;1.40;;;34.00;41.80;;;;;;5070830;28;20240;-62
2022/06/18 10:11:57;;;;;;;4.07;1.80;;;34.10;43.20;;;;;;5071010;28;20243;-65
2022/06/18 10:14:24;;;;;;;1.90;1.35;;;34.10;43.60;;;;;;5071551;28;20292;-65
2022/06/18 10:17:05;;;;;;;3.03;1.70;;;33.80;43.40;;;;;;5073190;28;20205;-61
2022/06/18 10:19:41;;;;;;;3.45;1.60;;;33.60;43.20;;;;;;5073374;28;20296;-62
2022/06/18 10:22:17;;;;;;;2.10;1.48;;;33.50;43.20;;;;;;5073940;28;20761;-61
2022/06/18 10:24:53;;;;;;;1.23;1.13;;;33.60;41.70;;;;;;5074196;28;20216;-61
2022/06/18 10:27:31;;;;;;;1.35;1.25;;;33.70;40.80;;;;;;5074162;28;20225;-62
2022/06/18 10:30:05;;;;;;;2.53;1.27;;;33.90;40.80;;;;;;5075521;28;20212;-62
2022/06/18 10:32:44;;;;;;;1.80;1.30;;;34.10;40.60;;;;;;5073324;28;20220;-61
2022/06/18 10:35:22;;;;;;;4.75;1.52;;;34.10;41.10;;;;;;5073839;28;20207;-61
2022/06/18 10:38:01;;;;;;;1.42;1.30;;;34.30;41.90;;;;;;5073488;28;20208;-62
2022/06/18 10:40:40;;;;;;;2.25;1.30;;;34.40;41.80;;;;;;5072281;28;20213;-64
2022/06/18 10:43:28;;;;;;;1.80;1.30;;;34.30;41.70;;;;;;5072272;28;20208;-62
2022/06/18 10:46:00;;;;;;;2.15;1.25;;;34.20;42.10;;;;;;5071889;28;20275;-62
2022/06/18 10:48:29;;;;;;;5.47;1.48;;;34.20;41.70;;;;;;5072637;28;20225;-61
2022/06/18 10:50:58;;;;;;;2.17;1.30;;;34.40;41.40;;;;;;5072825;28;20236;-61
2022/06/18 10:53:27;;;;;;;2.20;1.15;;;34.50;41.00;;;;;;5072047;28;20278;-61
2022/06/18 10:56:00;;;;;;;3.03;1.20;;;34.50;39.50;;;;;;5072043;28;20201;-61
2022/06/18 10:58:28;;;;;;;1.20;1.00;;;34.40;38.30;;;;;;5071652;28;20209;-61
2022/06/18 11:00:57;;;;;;;2.22;1.10;;;34.40;38.40;;;;;;5071908;28;20229;-62
2022/06/18 11:03:28;;;;;;;3.83;1.20;;;34.50;37.60;;;;;;5071846;28;20680;-62
2022/06/18 11:05:54;;;;;;;7.60;1.85;;;34.70;36.90;;;;;;5071598;28;20220;-61
2022/06/18 11:08:25;;;;;;;4.20;1.10;;;34.80;36.90;;;;;;5071461;28;20233;-61
2022/06/18 11:10:55;;;;;;;2.05;1.10;;;34.90;37.60;;;;;;5071796;28;20232;-62
2022/06/18 11:13:28;;;;;;;2.83;1.30;;;35.10;37.50;;;;;;5071217;28;20692;-61
2022/06/18 11:16:15;;;;;;;3.72;1.70;;;35.10;37.50;;;;;;5071551;28;20733;-61
2022/06/18 11:18:49;;;;;;;1.95;1.15;;;35.00;37.70;;;;;;5071398;28;20216;-61
2022/06/18 11:21:23;;;;;;;3.55;1.20;;;35.10;37.80;;;;;;5071684;28;20225;-62
2022/06/18 11:23:55;;;;;;;3.28;1.20;;;35.20;37.60;;;;;;5071490;28;20204;-62
2022/06/18 11:26:22;;;;;;;3.55;1.10;;;35.20;37.40;;;;;;5071551;28;20621;-62
2022/06/18 11:28:53;;;;;;;2.20;1.00;;;35.30;37.30;;;;;;5070953;28;20231;-62
2022/06/18 11:31:27;;;;;;;5.60;1.20;;;35.40;35.90;;;;;;5071227;28;20641;-62
2022/06/18 11:34:01;;;;;;;2.05;0.93;;;35.50;35.00;;;;;;5071581;28;20278;-62
2022/06/18 11:36:41;;;;;;;2.03;0.82;;;35.60;33.60;;;;;;5071007;28;20209;-62
2022/06/18 11:39:25;;;;;;;2.03;0.80;;;35.60;33.00;;;;;;5070880;28;20201;-63
2022/06/18 11:41:57;;;;;;;1.33;0.90;;;35.70;32.10;;;;;;5071433;28;20224;-63
2022/06/18 11:44:30;;;;;;;3.58;0.88;;;35.70;32.60;;;;;;5071250;28;20228;-61
2022/06/18 11:47:05;;;;;;;3.45;1.17;;;35.80;31.40;;;;;;5071084;28;20205;-63
2022/06/18 11:49:35;;;;;;;5.72;1.30;;;35.90;31.50;;;;;;5071183;28;20568;-61
2022/06/18 11:52:09;;;;;;;2.30;0.98;;;35.90;31.90;;;;;;5074680;28;20225;-61
2022/06/18 11:54:40;;;;;;;3.55;1.00;;;36.00;31.50;;;;;;5074469;28;20259;-61
2022/06/18 11:57:17;;;;;;;4.47;1.35;;;35.80;31.30;;;;;;5074104;28;20227;-61
2022/06/18 11:59:52;;;;;;;4.97;1.35;;;35.70;31.90;;;;;;5074244;28;20212;-61
2022/06/18 12:02:24;;;;;;;2.67;1.05;;;35.70;31.30;;;;;;5074557;28;20294;-61
2022/06/18 12:04:54;;;;;;;3.90;1.08;;;35.80;31.70;;;;;;5074640;28;20262;-61
2022/06/18 12:07:27;;;;;;;5.90;1.00;;;35.90;31.50;;;;;;5074298;28;20227;-61
2022/06/18 12:09:53;;;;;;;6.47;1.40;;;36.00;32.20;;;;;;5073977;28;20201;-61
2022/06/18 12:12:45;;;;;;;6.53;1.88;;;36.10;31.90;;;;;;5074066;28;20266;-61
2022/06/18 12:15:19;;;;;;;6.43;1.88;;;36.20;32.30;;;;;;5074346;28;20205;-61
2022/06/18 12:17:53;;;;;;;5.90;1.50;;;36.20;31.60;;;;;;5073774;28;20218;-61
2022/06/18 12:20:42;;;;;;;6.18;1.73;;;36.20;31.70;;;;;;5073906;28;20205;-61
2022/06/18 12:23:16;;;;;;;10.98;1.90;;;36.30;31.70;;;;;;5074035;28;20282;-61
2022/06/18 12:25:52;;;;;;;8.20;1.73;;;36.30;31.70;;;;;;5074075;28;20266;-61
2022/06/18 12:28:26;;;;;;;6.68;1.38;;;36.40;31.80;;;;;;5073416;28;20220;-61
2022/06/18 12:30:59;;;;;;;8.15;1.92;;;36.30;31.70;;;;;;5073707;28;20599;-61
2022/06/18 12:33:35;;;;;;;8.57;1.83;;;36.20;32.40;;;;;;5073439;28;20224;-61
2022/06/18 12:36:08;;;;;;;9.57;2.10;;;36.20;32.90;;;;;;5073802;28;20208;-61
2022/06/18 12:38:42;;;;;;;7.72;1.88;;;36.20;32.90;;;;;;5073385;28;20205;-61
2022/06/18 12:41:17;;;;;;;5.28;1.75;;;36.30;32.80;;;;;;5073688;28;20712;-61
2022/06/18 12:43:54;;;;;;;12.15;2.33;;;36.40;32.80;;;;;;5073489;28;20402;-61
2022/06/18 12:46:27;;;;;;;11.00;2.30;;;36.40;33.70;;;;;;5073878;28;20212;-60
2022/06/18 12:49:04;;;;;;;11.25;2.92;;;36.50;33.70;;;;;;5073550;28;20225;-61
2022/06/18 12:51:37;;;;;;;13.52;2.60;;;36.60;33.80;;;;;;5073628;28;20274;-63
2022/06/18 12:54:36;;;;;;;10.70;2.72;;;36.70;33.60;;;;;;5073484;28;20558;-61
2022/06/18 12:57:13;;;;;;;16.92;3.05;;;36.70;33.60;;;;;;5073372;28;20270;-62
2022/06/18 12:59:50;;;;;;;13.52;3.08;;;36.80;33.20;;;;;;5073074;28;20576;-61
2022/06/18 13:02:26;;;;;;;17.10;2.90;;;36.80;33.50;;;;;;5072521;28;20232;-62
2022/06/18 13:05:09;;;;;;;12.68;2.47;;;36.80;33.80;;;;;;5073549;28;20258;-61
2022/06/18 13:07:44;;;;;;;15.43;3.10;;;36.60;34.60;;;;;;5073752;28;20251;-61
2022/06/18 13:10:18;;;;;;;13.65;2.80;;;36.70;34.40;;;;;;5073540;28;20204;-61
2022/06/18 13:12:58;;;;;;;12.45;3.35;;;36.60;34.50;;;;;;5073603;28;20240;-61
2022/06/18 13:15:33;;;;;;;18.08;2.90;;;36.70;35.20;;;;;;5073456;28;20300;-62
2022/06/18 13:18:07;;;;;;;13.05;3.40;;;36.70;35.30;;;;;;5073060;28;20589;-61